createdAt,value
2022-12-15T00:00:16.288Z,6.19
2022-12-15T00:03:30.846Z,6.08
2022-12-15T00:06:25.193Z,4.86
2022-12-15T00:09:20.599Z,3.75
2022-12-15T00:12:14.256Z,2.89
2022-12-15T00:15:07.915Z,2.24
2022-12-15T00:18:01.374Z,1.65
2022-12-15T00:20:55.039Z,1.16
2022-12-15T00:23:48.698Z,0.74
2022-12-15T00:26:42.261Z,0.36
2022-12-15T00:29:35.970Z,0.03
2022-12-15T00:32:29.770Z,-0.27
2022-12-15T00:35:24.195Z,-0.55
2022-12-15T00:38:17.813Z,-0.76
2022-12-15T00:40:59.210Z,-0.97
2022-12-15T00:43:37.803Z,-1.13
2022-12-15T00:46:32.031Z,-0.96
2022-12-15T00:49:27.950Z,0.75
2022-12-15T00:52:21.541Z,1.66
2022-12-15T00:55:15.833Z,1.88
2022-12-15T00:58:09.803Z,2.31
2022-12-15T01:01:03.424Z,3.33
2022-12-15T01:03:57.370Z,3.75
2022-12-15T01:06:50.782Z,4.43
2022-12-15T01:09:44.987Z,5.03
2022-12-15T01:12:38.550Z,5.56
2022-12-15T01:15:33.201Z,5.71
2022-12-15T01:18:27.036Z,6.21
2022-12-15T01:21:06.090Z,6.44
2022-12-15T01:23:43.426Z,5.46
2022-12-15T01:26:19.535Z,4.43
2022-12-15T01:28:55.287Z,3.63
2022-12-15T01:31:31.191Z,2.97
2022-12-15T01:34:07.587Z,2.40
2022-12-15T01:36:43.663Z,1.90
2022-12-15T01:39:19.612Z,1.46
2022-12-15T01:41:55.584Z,1.06
2022-12-15T01:44:31.553Z,0.69
2022-12-15T01:47:09.964Z,0.36
2022-12-15T01:49:47.734Z,0.08
2022-12-15T01:52:25.346Z,-0.18
2022-12-15T01:55:02.729Z,-0.40
2022-12-15T01:57:39.520Z,-0.35
2022-12-15T02:00:18.518Z,0.83
2022-12-15T02:02:54.897Z,2.41
2022-12-15T02:05:33.942Z,3.41
2022-12-15T02:08:11.800Z,3.83
2022-12-15T02:11:39.089Z,4.52
2022-12-15T02:14:21.843Z,5.37
2022-12-15T02:17:15.531Z,5.73
2022-12-15T02:20:44.461Z,5.94
2022-12-15T02:24:24.162Z,5.92
2022-12-15T02:27:56.781Z,6.06
2022-12-15T02:31:19.918Z,4.99
2022-12-15T02:34:08.410Z,3.66
2022-12-15T02:36:50.573Z,2.79
2022-12-15T02:39:28.210Z,2.09
2022-12-15T02:42:04.021Z,1.50
2022-12-15T02:44:46.551Z,1.00
2022-12-15T02:47:38.459Z,0.54
2022-12-15T02:50:50.061Z,0.14
2022-12-15T02:54:01.031Z,-0.24
2022-12-15T02:56:47.990Z,-0.56
2022-12-15T02:59:39.138Z,-0.78
2022-12-15T03:02:16.979Z,-0.68
2022-12-15T03:04:53.580Z,0.81
2022-12-15T03:07:31.410Z,2.47
2022-12-15T03:10:11.592Z,3.63
2022-12-15T03:12:47.476Z,4.44
2022-12-15T03:15:24.130Z,4.99
2022-12-15T03:17:59.928Z,5.52
2022-12-15T03:20:36.408Z,5.98
2022-12-15T03:23:12.234Z,6.25
2022-12-15T03:25:50.454Z,6.66
2022-12-15T03:28:26.519Z,6.50
2022-12-15T03:31:03.193Z,5.32
2022-12-15T03:33:39.972Z,4.10
2022-12-15T03:36:16.228Z,3.15
2022-12-15T03:38:52.093Z,2.41
2022-12-15T03:41:27.976Z,1.77
2022-12-15T03:44:04.347Z,1.23
2022-12-15T03:46:40.278Z,0.76
2022-12-15T03:49:16.201Z,0.38
2022-12-15T03:51:52.311Z,0.05
2022-12-15T03:54:28.271Z,-0.26
2022-12-15T03:57:04.100Z,-0.37
2022-12-15T03:59:39.900Z,0.34
2022-12-15T04:02:16.447Z,1.17
2022-12-15T04:04:52.594Z,1.77
2022-12-15T04:07:28.393Z,2.17
2022-12-15T04:10:04.557Z,2.41
2022-12-15T04:12:40.704Z,2.50
2022-12-15T04:15:17.260Z,3.29
2022-12-15T04:17:53.189Z,4.31
2022-12-15T04:20:29.145Z,4.77
2022-12-15T04:23:07.765Z,5.01
2022-12-15T04:26:01.426Z,5.37
2022-12-15T04:28:55.144Z,5.25
2022-12-15T04:31:53.148Z,5.06
2022-12-15T04:34:47.135Z,4.70
2022-12-15T04:37:40.737Z,4.26
2022-12-15T04:40:34.741Z,3.97
2022-12-15T04:43:28.829Z,3.80
2022-12-15T04:46:22.623Z,3.70
2022-12-15T04:49:16.342Z,3.61
2022-12-15T04:52:09.389Z,3.42
2022-12-15T04:55:02.834Z,3.51
2022-12-15T04:57:57.319Z,3.63
2022-12-15T05:00:50.774Z,3.55
2022-12-15T05:03:44.208Z,3.37
2022-12-15T05:06:37.895Z,3.06
2022-12-15T05:09:31.491Z,3.02
2022-12-15T05:12:25.621Z,3.01
2022-12-15T05:15:19.181Z,2.92
2022-12-15T05:18:13.050Z,2.72
2022-12-15T05:21:06.491Z,2.56
2022-12-15T05:24:00.453Z,2.65
2022-12-15T05:26:54.151Z,2.67
2022-12-15T05:29:47.675Z,2.68
2022-12-15T05:32:23.719Z,2.49
2022-12-15T05:34:59.861Z,2.32
2022-12-15T05:37:35.592Z,2.18
2022-12-15T05:40:14.624Z,2.07
2022-12-15T05:42:50.564Z,2.06
2022-12-15T05:45:26.600Z,2.21
2022-12-15T05:48:02.655Z,2.47
2022-12-15T05:50:38.882Z,2.62
2022-12-15T05:53:15.596Z,2.45
2022-12-15T05:55:51.692Z,2.13
2022-12-15T05:58:27.610Z,1.93
2022-12-15T06:01:12.921Z,1.74
2022-12-15T06:03:49.178Z,1.56
2022-12-15T06:06:25.711Z,1.42
2022-12-15T06:09:03.657Z,1.26
2022-12-15T06:11:39.992Z,1.14
2022-12-15T06:14:16.208Z,1.05
2022-12-15T06:17:00.496Z,0.94
2022-12-15T06:19:39.216Z,1.02
2022-12-15T06:22:15.144Z,1.01
2022-12-15T06:24:51.224Z,0.88
2022-12-15T06:27:27.184Z,0.74
2022-12-15T06:30:03.047Z,0.66
2022-12-15T06:32:41.339Z,0.59
2022-12-15T06:35:17.591Z,0.54
2022-12-15T06:37:53.606Z,0.83
2022-12-15T06:40:32.127Z,1.90
2022-12-15T06:43:10.698Z,2.94
2022-12-15T06:45:52.520Z,3.52
2022-12-15T06:48:27.399Z,3.65
2022-12-15T06:51:14.949Z,3.51
2022-12-15T06:53:54.395Z,3.29
2022-12-15T06:56:36.076Z,3.15
2022-12-15T06:59:13.641Z,3.27
2022-12-15T07:01:49.626Z,3.15
2022-12-15T07:04:25.880Z,3.06
2022-12-15T07:07:02.043Z,2.94
2022-12-15T07:09:37.870Z,2.80
2022-12-15T07:12:16.579Z,2.56
2022-12-15T07:14:53.726Z,2.35
2022-12-15T07:17:30.044Z,2.22
2022-12-15T07:20:07.450Z,2.12
2022-12-15T07:22:43.372Z,2.14
2022-12-15T07:25:19.913Z,2.10
2022-12-15T07:27:56.323Z,2.11
2022-12-15T07:30:38.439Z,2.08
2022-12-15T07:33:15.852Z,2.19
2022-12-15T07:35:59.536Z,2.40
2022-12-15T07:38:36.778Z,2.43
2022-12-15T07:41:14.215Z,2.54
2022-12-15T07:43:50.302Z,3.01
2022-12-15T07:46:27.477Z,3.34
2022-12-15T07:49:03.431Z,3.46
2022-12-15T07:51:39.449Z,3.44
2022-12-15T07:54:16.768Z,3.47
2022-12-15T07:56:53.190Z,3.67
2022-12-15T07:59:29.275Z,3.70
2022-12-15T08:02:06.350Z,3.85
2022-12-15T08:04:42.746Z,3.67
2022-12-15T08:07:18.826Z,3.52
2022-12-15T08:09:55.007Z,3.31
2022-12-15T08:12:31.513Z,3.07
2022-12-15T08:15:09.308Z,2.96
2022-12-15T08:17:47.048Z,2.77
2022-12-15T08:20:23.284Z,2.63
2022-12-15T08:22:59.191Z,2.53
2022-12-15T08:25:35.134Z,2.43
2022-12-15T08:28:11.494Z,2.32
2022-12-15T08:30:47.349Z,2.26
2022-12-15T08:33:23.385Z,2.30
2022-12-15T08:36:04.695Z,2.23
2022-12-15T08:38:42.546Z,2.17
2022-12-15T08:41:26.552Z,2.35
2022-12-15T08:44:04.594Z,2.34
2022-12-15T08:46:40.832Z,2.27
2022-12-15T08:49:21.644Z,2.35
2022-12-15T08:51:58.481Z,2.76
2022-12-15T08:54:34.809Z,3.52
2022-12-15T08:57:10.968Z,3.65
2022-12-15T08:59:46.923Z,3.71
2022-12-15T09:02:23.621Z,3.48
2022-12-15T09:04:59.760Z,3.54
2022-12-15T09:07:35.715Z,3.61
2022-12-15T09:10:13.065Z,3.80
2022-12-15T09:12:49.057Z,4.24
2022-12-15T09:15:45.362Z,4.46
2022-12-15T09:18:21.238Z,4.42
2022-12-15T09:21:01.816Z,4.51
2022-12-15T09:23:38.695Z,4.96
2022-12-15T09:26:17.161Z,5.00
2022-12-15T09:28:54.804Z,4.90
2022-12-15T09:31:38.101Z,4.63
2022-12-15T09:34:18.354Z,4.55
2022-12-15T09:36:54.222Z,4.50
2022-12-15T09:39:30.376Z,4.34
2022-12-15T09:42:06.514Z,4.18
2022-12-15T09:44:43.454Z,3.96
2022-12-15T09:47:35.893Z,3.75
2022-12-15T09:50:20.608Z,3.50
2022-12-15T09:52:59.991Z,3.32
2022-12-15T09:55:37.314Z,3.18
2022-12-15T09:58:35.250Z,3.11
2022-12-15T10:01:38.527Z,3.02
2022-12-15T10:04:27.360Z,2.98
2022-12-15T10:07:15.861Z,3.00
2022-12-15T10:09:51.817Z,3.04
2022-12-15T10:12:34.977Z,3.06
2022-12-15T10:15:24.611Z,3.14
2022-12-15T10:18:11.480Z,3.21
2022-12-15T10:20:48.494Z,3.26
2022-12-15T10:23:26.386Z,3.30
2022-12-15T10:26:23.798Z,3.36
2022-12-15T10:29:27.744Z,3.42
2022-12-15T10:32:12.966Z,3.48
2022-12-15T10:34:49.126Z,3.56
2022-12-15T10:37:26.344Z,3.58
2022-12-15T10:40:02.261Z,3.58
2022-12-15T10:42:52.961Z,3.57
2022-12-15T10:45:41.634Z,3.56
2022-12-15T10:48:25.524Z,3.50
2022-12-15T10:51:26.535Z,3.36
2022-12-15T10:54:15.676Z,3.20
2022-12-15T10:56:57.935Z,3.11
2022-12-15T10:59:37.397Z,2.96
2022-12-15T11:02:37.697Z,2.85
2022-12-15T11:05:21.899Z,2.78
2022-12-15T11:08:17.155Z,2.79
2022-12-15T11:11:16.958Z,2.77
2022-12-15T11:14:16.638Z,2.77
2022-12-15T11:17:00.368Z,2.72
2022-12-15T11:19:49.957Z,2.69
2022-12-15T11:22:39.331Z,2.65
2022-12-15T11:25:32.653Z,2.66
2022-12-15T11:28:18.172Z,2.70
2022-12-15T11:31:07.224Z,2.73
2022-12-15T11:33:43.057Z,2.81
2022-12-15T11:36:46.856Z,2.86
2022-12-15T11:39:44.814Z,2.88
2022-12-15T11:42:35.400Z,2.87
2022-12-15T11:45:23.945Z,2.84
2022-12-15T11:48:14.702Z,2.87
2022-12-15T11:51:01.409Z,3.00
2022-12-15T11:54:05.403Z,3.10
2022-12-15T11:56:51.818Z,3.15
2022-12-15T11:59:56.180Z,3.16
2022-12-15T12:02:58.651Z,3.12
2022-12-15T12:05:59.023Z,3.07
2022-12-15T12:09:18.676Z,3.04
2022-12-15T12:12:13.310Z,2.99
2022-12-15T12:15:16.563Z,2.97
2022-12-15T12:17:57.918Z,2.93
2022-12-15T12:20:50.831Z,2.93
2022-12-15T12:23:38.163Z,2.91
2022-12-15T12:26:24.006Z,2.95
2022-12-15T12:29:09.623Z,2.97
2022-12-15T12:32:05.319Z,2.99
2022-12-15T12:35:31.601Z,2.97
2022-12-15T12:38:05.614Z,2.90
2022-12-15T12:41:02.908Z,2.86
2022-12-15T12:43:43.699Z,2.82
2022-12-15T12:46:26.750Z,2.82
2022-12-15T12:49:14.697Z,2.87
2022-12-15T12:51:59.675Z,2.88
2022-12-15T12:54:59.436Z,2.86
2022-12-15T12:57:44.973Z,2.79
2022-12-15T13:00:27.315Z,2.73
2022-12-15T13:03:24.300Z,2.70
2022-12-15T13:06:00.200Z,2.68
2022-12-15T13:08:55.996Z,2.66
2022-12-15T13:12:20.554Z,2.63
2022-12-15T13:15:04.817Z,2.61
2022-12-15T13:17:51.938Z,2.61
2022-12-15T13:20:34.528Z,2.61
2022-12-15T13:23:47.279Z,2.61
2022-12-15T13:26:31.826Z,2.57
2022-12-15T13:29:15.878Z,2.56
2022-12-15T13:31:54.788Z,2.58
2022-12-15T13:34:39.697Z,2.63
2022-12-15T13:37:54.348Z,2.62
2022-12-15T13:40:56.846Z,2.56
2022-12-15T13:43:49.623Z,2.50
2022-12-15T13:46:34.565Z,2.70
2022-12-15T13:49:22.076Z,2.75
2022-12-15T13:52:12.074Z,2.61
2022-12-15T13:55:01.835Z,2.39
2022-12-15T13:57:55.569Z,2.17
2022-12-15T14:00:32.975Z,2.04
2022-12-15T14:03:15.642Z,2.01
2022-12-15T14:05:58.946Z,1.96
2022-12-15T14:08:55.745Z,1.85
2022-12-15T14:11:52.397Z,1.77
2022-12-15T14:14:35.938Z,1.73
2022-12-15T14:17:17.518Z,1.70
2022-12-15T14:19:54.640Z,1.67
2022-12-15T14:22:32.579Z,1.62
2022-12-15T14:25:22.409Z,1.58
2022-12-15T14:28:01.087Z,1.52
2022-12-15T14:30:38.247Z,1.42
2022-12-15T14:33:22.095Z,1.33
2022-12-15T14:36:06.153Z,1.26
2022-12-15T14:38:55.185Z,1.20
2022-12-15T14:41:39.168Z,1.14
2022-12-15T14:44:38.074Z,1.09
2022-12-15T14:47:27.988Z,1.04
2022-12-15T14:50:11.025Z,0.99
2022-12-15T14:52:48.598Z,0.96
2022-12-15T14:55:39.404Z,0.93
2022-12-15T14:58:37.146Z,0.91
2022-12-15T15:01:31.219Z,0.94
2022-12-15T15:04:23.793Z,0.98
2022-12-15T15:07:04.615Z,0.98
2022-12-15T15:09:47.055Z,0.99
2022-12-15T15:12:28.912Z,1.01
2022-12-15T15:15:07.920Z,1.01
2022-12-15T15:17:53.617Z,0.96
2022-12-15T15:20:34.796Z,0.90
2022-12-15T15:23:21.487Z,0.84
2022-12-15T15:25:59.444Z,0.78
2022-12-15T15:28:41.922Z,0.75
2022-12-15T15:31:42.213Z,0.77
2022-12-15T15:34:18.570Z,0.79
2022-12-15T15:36:55.010Z,0.76
2022-12-15T15:39:31.487Z,0.73
2022-12-15T15:42:16.382Z,0.70
2022-12-15T15:44:52.297Z,0.68
2022-12-15T15:47:30.401Z,0.70
2022-12-15T15:50:07.300Z,0.72
2022-12-15T15:52:44.847Z,0.72
2022-12-15T15:55:29.494Z,0.71
2022-12-15T15:58:14.526Z,0.65
2022-12-15T16:00:50.575Z,0.67
2022-12-15T16:03:26.934Z,0.62
2022-12-15T16:06:04.418Z,0.59
2022-12-15T16:08:41.918Z,0.54
2022-12-15T16:11:18.094Z,0.49
2022-12-15T16:13:54.050Z,0.47
2022-12-15T16:16:34.992Z,0.43
2022-12-15T16:19:12.175Z,0.40
2022-12-15T16:21:51.047Z,0.39
2022-12-15T16:24:27.190Z,0.42
2022-12-15T16:27:03.919Z,0.41
2022-12-15T16:29:39.918Z,0.37
2022-12-15T16:32:16.847Z,0.33
2022-12-15T16:34:53.031Z,0.31
2022-12-15T16:37:37.737Z,0.30
2022-12-15T16:40:28.351Z,0.27
2022-12-15T16:43:18.587Z,0.25
2022-12-15T16:45:57.134Z,0.24
2022-12-15T16:48:33.402Z,0.24
2022-12-15T16:51:19.668Z,0.23
2022-12-15T16:53:55.722Z,0.21
2022-12-15T16:56:31.777Z,0.19
2022-12-15T16:59:31.974Z,0.19
2022-12-15T17:02:17.528Z,0.19
2022-12-15T17:04:55.343Z,0.36
2022-12-15T17:07:32.263Z,0.72
2022-12-15T17:10:16.560Z,0.94
2022-12-15T17:12:55.036Z,1.05
2022-12-15T17:15:31.798Z,1.02
2022-12-15T17:18:08.955Z,0.98
2022-12-15T17:20:45.644Z,0.91
2022-12-15T17:23:24.134Z,0.83
2022-12-15T17:26:30.186Z,0.72
2022-12-15T17:28:57.453Z,0.60
2022-12-15T17:31:35.924Z,0.45
2022-12-15T17:34:30.283Z,0.33
2022-12-15T17:37:12.599Z,0.19
2022-12-15T17:39:51.534Z,0.24
2022-12-15T17:42:27.618Z,0.37
2022-12-15T17:45:03.737Z,0.53
2022-12-15T17:47:39.872Z,0.69
2022-12-15T17:50:18.009Z,0.82
2022-12-15T17:52:54.038Z,1.01
2022-12-15T17:55:35.242Z,1.00
2022-12-15T17:58:22.263Z,0.89
2022-12-15T18:00:59.885Z,1.10
2022-12-15T18:03:36.293Z,1.27
2022-12-15T18:06:18.884Z,1.41
2022-12-15T18:08:53.392Z,1.36
2022-12-15T18:11:30.884Z,1.02
2022-12-15T18:14:07.149Z,0.82
2022-12-15T18:16:43.064Z,0.73
2022-12-15T18:19:19.162Z,0.57
2022-12-15T18:21:55.834Z,0.34
2022-12-15T18:24:31.855Z,0.19
2022-12-15T18:27:23.804Z,0.05
2022-12-15T18:30:00.495Z,-0.06
2022-12-15T18:32:42.156Z,-0.14
2022-12-15T18:35:40.341Z,-0.19
2022-12-15T18:38:23.741Z,-0.28
2022-12-15T18:41:04.319Z,-0.36
2022-12-15T18:43:41.819Z,-0.34
2022-12-15T18:46:20.392Z,-0.37
2022-12-15T18:48:56.803Z,-0.42
2022-12-15T18:51:32.908Z,-0.47
2022-12-15T18:54:15.359Z,-0.52
2022-12-15T18:56:51.873Z,-0.55
2022-12-15T18:59:28.199Z,-0.57
2022-12-15T19:02:04.341Z,-0.60
2022-12-15T19:04:40.518Z,-0.61
2022-12-15T19:07:16.582Z,-0.62
2022-12-15T19:09:54.673Z,-0.65
2022-12-15T19:12:30.651Z,-0.65
2022-12-15T19:15:14.048Z,-0.62
2022-12-15T19:18:08.902Z,-0.65
2022-12-15T19:21:03.237Z,-0.67
2022-12-15T19:23:39.221Z,-0.70
2022-12-15T19:26:16.190Z,-0.70
2022-12-15T19:28:52.349Z,-0.69
2022-12-15T19:31:28.574Z,-0.69
2022-12-15T19:34:04.759Z,-0.69
2022-12-15T19:36:41.564Z,-0.73
2022-12-15T19:39:26.296Z,-0.75
2022-12-15T19:42:07.537Z,-0.78
2022-12-15T19:44:46.682Z,-0.80
2022-12-15T19:47:22.620Z,-0.82
2022-12-15T19:49:58.803Z,-0.81
2022-12-15T19:52:35.618Z,-0.76
2022-12-15T19:55:19.559Z,-0.76
2022-12-15T19:57:55.693Z,-0.77
2022-12-15T20:00:32.164Z,-0.80
2022-12-15T20:03:08.336Z,-0.82
2022-12-15T20:05:44.739Z,-0.82
2022-12-15T20:08:26.615Z,-0.86
2022-12-15T20:11:03.735Z,-0.88
2022-12-15T20:13:40.350Z,-0.87
2022-12-15T20:16:19.299Z,-0.87
2022-12-15T20:18:58.283Z,-0.86
2022-12-15T20:21:39.778Z,-0.84
2022-12-15T20:24:21.392Z,-0.83
2022-12-15T20:26:59.761Z,-0.86
2022-12-15T20:29:37.356Z,-0.85
2022-12-15T20:32:21.854Z,-0.84
2022-12-15T20:34:59.301Z,-0.83
2022-12-15T20:37:35.975Z,-0.80
2022-12-15T20:40:28.102Z,-0.78
2022-12-15T20:43:07.195Z,-0.79
2022-12-15T20:45:43.379Z,-0.78
2022-12-15T20:48:20.499Z,-0.78
2022-12-15T20:50:57.049Z,-0.80
2022-12-15T20:53:33.726Z,-0.81
2022-12-15T20:56:14.404Z,-0.82
2022-12-15T20:58:51.359Z,-0.81
2022-12-15T21:01:32.310Z,-0.83
2022-12-15T21:04:27.806Z,-0.83
2022-12-15T21:07:04.204Z,-0.83
2022-12-15T21:09:40.159Z,-0.82
2022-12-15T21:12:24.785Z,-0.84
2022-12-15T21:15:01.956Z,-0.84
2022-12-15T21:17:41.821Z,-0.87
2022-12-15T21:20:19.160Z,-0.87
2022-12-15T21:22:55.397Z,-0.85
2022-12-15T21:25:32.318Z,-0.87
2022-12-15T21:28:14.007Z,-0.86
2022-12-15T21:30:51.381Z,-0.85
2022-12-15T21:33:27.717Z,-0.86
2022-12-15T21:36:04.189Z,-0.90
2022-12-15T21:38:46.694Z,-0.88
2022-12-15T21:41:25.514Z,-0.90
2022-12-15T21:44:02.676Z,-0.91
2022-12-15T21:46:39.203Z,-0.92
2022-12-15T21:49:20.669Z,-0.93
2022-12-15T21:52:01.267Z,-0.93
2022-12-15T21:54:39.372Z,-0.93
2022-12-15T21:57:17.065Z,-0.94
2022-12-15T21:59:53.275Z,-0.96
2022-12-15T22:02:30.711Z,-1.00
2022-12-15T22:05:16.038Z,-1.00
2022-12-15T22:07:52.836Z,-1.00
2022-12-15T22:10:30.609Z,-1.01
2022-12-15T22:13:07.398Z,-1.01
2022-12-15T22:15:45.118Z,-1.02
2022-12-15T22:18:22.547Z,-1.03
2022-12-15T22:20:58.632Z,-1.01
2022-12-15T22:23:34.897Z,-1.05
2022-12-15T22:26:21.346Z,-1.06
2022-12-15T22:29:01.109Z,-1.04
2022-12-15T22:31:37.435Z,-1.05
2022-12-15T22:34:23.799Z,-1.06
2022-12-15T22:36:59.862Z,-1.08
2022-12-15T22:39:35.712Z,-1.08
2022-12-15T22:42:16.142Z,-1.09
2022-12-15T22:44:59.040Z,-1.08
2022-12-15T22:47:38.726Z,-1.05
2022-12-15T22:50:23.409Z,-1.02
2022-12-15T22:52:59.731Z,-1.02
2022-12-15T22:55:35.551Z,-1.00
2022-12-15T22:58:17.309Z,-0.99
2022-12-15T23:00:55.850Z,-0.98
2022-12-15T23:03:34.122Z,-0.94
2022-12-15T23:06:11.154Z,-0.96
2022-12-15T23:08:51.147Z,-0.96
2022-12-15T23:11:42.038Z,-0.96
2022-12-15T23:14:40.513Z,-0.96
2022-12-15T23:17:17.065Z,-0.92
2022-12-15T23:19:53.247Z,-0.85
2022-12-15T23:22:29.055Z,-0.89
2022-12-15T23:25:07.703Z,-0.93
2022-12-15T23:27:44.778Z,-0.95
2022-12-15T23:30:21.474Z,-0.91
2022-12-15T23:32:57.326Z,-0.93
2022-12-15T23:35:33.706Z,-0.93
2022-12-15T23:38:09.785Z,-0.99
2022-12-15T23:40:53.179Z,-1.01
2022-12-15T23:43:32.629Z,-1.04
2022-12-15T23:46:12.701Z,-1.05
2022-12-15T23:48:48.876Z,-1.06
2022-12-15T23:51:25.116Z,-1.08
2022-12-15T23:54:00.930Z,-1.07
2022-12-15T23:56:39.838Z,-1.07
2022-12-15T23:59:15.974Z,-1.06
